createdAt,value
2022-10-11T00:00:13.220Z,76.04
2022-10-11T00:02:35.735Z,76.24
2022-10-11T00:04:58.265Z,76.46
2022-10-11T00:07:20.898Z,76.67
2022-10-11T00:09:43.770Z,77.08
2022-10-11T00:12:06.571Z,77.21
2022-10-11T00:14:59.864Z,77.19
2022-10-11T00:17:32.889Z,77.04
2022-10-11T00:20:05.577Z,76.64
2022-10-11T00:22:40.088Z,76.78
2022-10-11T00:25:13.863Z,76.42
2022-10-11T00:27:47.617Z,76.96
2022-10-11T00:30:22.281Z,77.06
2022-10-11T00:32:57.431Z,76.35
2022-10-11T00:35:32.163Z,76.53
2022-10-11T00:38:06.500Z,76.72
2022-10-11T00:40:41.096Z,77.21
2022-10-11T00:43:22.157Z,77.47
2022-10-11T00:45:56.530Z,77.60
2022-10-11T00:48:53.703Z,76.72
2022-10-11T00:51:36.137Z,77.04
2022-10-11T00:54:15.152Z,76.98
2022-10-11T00:56:53.749Z,76.85
2022-10-11T00:59:30.847Z,75.44
2022-10-11T01:02:06.795Z,75.60
2022-10-11T01:04:41.795Z,75.04
2022-10-11T01:07:18.837Z,75.03
2022-10-11T01:09:59.160Z,76.17
2022-10-11T01:12:33.863Z,76.24
2022-10-11T01:15:33.952Z,75.48
2022-10-11T01:18:19.597Z,74.74
2022-10-11T01:20:59.715Z,74.57
2022-10-11T01:24:19.745Z,74.65
2022-10-11T01:27:32.058Z,75.25
2022-10-11T01:30:28.165Z,74.74
2022-10-11T01:33:30.652Z,75.25
2022-10-11T01:36:14.185Z,75.64
2022-10-11T01:38:53.448Z,75.64
2022-10-11T01:41:42.231Z,74.09
2022-10-11T01:44:16.396Z,73.97
2022-10-11T01:46:54.494Z,75.19
2022-10-11T01:49:28.775Z,74.40
2022-10-11T01:52:07.103Z,74.65
2022-10-11T01:55:08.506Z,75.07
2022-10-11T01:58:02.287Z,75.82
2022-10-11T02:01:08.287Z,73.82
2022-10-11T02:04:07.491Z,74.75
2022-10-11T02:07:00.311Z,76.30
2022-10-11T02:09:42.780Z,75.61
2022-10-11T02:12:25.450Z,75.41
2022-10-11T02:15:03.865Z,75.77
2022-10-11T02:17:45.095Z,75.03
2022-10-11T02:20:23.176Z,75.50
2022-10-11T02:23:03.436Z,75.92
2022-10-11T02:25:38.030Z,76.05
2022-10-11T02:28:18.167Z,76.24
2022-10-11T02:30:53.681Z,75.77
2022-10-11T02:33:33.719Z,75.65
2022-10-11T02:36:15.902Z,75.51
2022-10-11T02:38:58.083Z,75.57
2022-10-11T02:41:39.799Z,75.82
2022-10-11T02:44:33.096Z,75.74
2022-10-11T02:47:07.597Z,76.09
2022-10-11T02:49:42.673Z,76.14
2022-10-11T02:52:18.355Z,76.17
2022-10-11T02:54:52.733Z,76.36
2022-10-11T02:57:26.109Z,76.43
2022-10-11T03:00:00.731Z,76.12
2022-10-11T03:02:35.826Z,75.42
2022-10-11T03:05:11.027Z,75.46
2022-10-11T03:07:46.092Z,75.16
2022-10-11T03:10:20.427Z,76.23
2022-10-11T03:12:54.095Z,77.01
2022-10-11T03:15:28.024Z,76.62
2022-10-11T03:18:02.592Z,76.69
2022-10-11T03:20:36.279Z,76.57
2022-10-11T03:23:11.492Z,76.14
2022-10-11T03:25:46.436Z,75.83
2022-10-11T03:28:20.601Z,76.31
2022-10-11T03:30:54.744Z,75.95
2022-10-11T03:33:29.517Z,75.95
2022-10-11T03:36:03.049Z,76.57
2022-10-11T03:38:37.467Z,76.21
2022-10-11T03:41:12.065Z,76.62
2022-10-11T03:43:46.610Z,76.13
2022-10-11T03:46:21.410Z,76.55
2022-10-11T03:48:56.750Z,76.81
2022-10-11T03:51:32.087Z,76.63
2022-10-11T03:54:07.092Z,76.81
2022-10-11T03:56:41.466Z,76.94
2022-10-11T03:59:14.548Z,77.51
2022-10-11T04:01:47.180Z,78.15
2022-10-11T04:04:21.101Z,78.27
2022-10-11T04:06:55.119Z,78.46
2022-10-11T04:09:29.494Z,78.29
2022-10-11T04:12:04.388Z,78.21
2022-10-11T04:14:38.595Z,77.80
2022-10-11T04:17:13.628Z,77.41
2022-10-11T04:19:48.527Z,77.58
2022-10-11T04:22:21.802Z,77.29
2022-10-11T04:24:56.432Z,76.97
2022-10-11T04:27:30.129Z,77.22
2022-10-11T04:30:04.577Z,77.17
2022-10-11T04:32:37.246Z,78.21
2022-10-11T04:35:10.579Z,78.43
2022-10-11T04:37:43.675Z,77.53
2022-10-11T04:40:16.529Z,77.36
2022-10-11T04:42:51.916Z,78.01
2022-10-11T04:45:25.371Z,77.83
2022-10-11T04:47:58.984Z,77.08
2022-10-11T04:50:33.416Z,76.78
2022-10-11T04:53:08.708Z,76.19
2022-10-11T04:55:40.643Z,76.40
2022-10-11T04:58:12.953Z,76.25
2022-10-11T05:00:48.300Z,76.50
2022-10-11T05:03:23.041Z,75.20
2022-10-11T05:05:58.517Z,75.22
2022-10-11T05:08:34.353Z,75.25
2022-10-11T05:11:14.012Z,74.74
2022-10-11T05:13:48.582Z,74.71
2022-10-11T05:16:23.510Z,74.61
2022-10-11T05:19:00.417Z,75.07
2022-10-11T05:21:38.492Z,75.23
2022-10-11T05:24:16.808Z,74.01
2022-10-11T05:26:52.163Z,73.79
2022-10-11T05:29:25.759Z,73.69
2022-10-11T05:32:01.372Z,73.27
2022-10-11T05:34:36.261Z,73.90
2022-10-11T05:37:22.090Z,74.33
2022-10-11T05:39:56.012Z,73.68
2022-10-11T05:42:30.510Z,72.76
2022-10-11T05:45:04.781Z,73.01
2022-10-11T05:47:39.973Z,72.82
2022-10-11T05:50:13.372Z,71.92
2022-10-11T05:52:48.139Z,71.53
2022-10-11T05:55:22.187Z,71.36
2022-10-11T05:57:56.921Z,71.00
2022-10-11T06:00:30.900Z,70.96
2022-10-11T06:03:06.459Z,70.98
2022-10-11T06:05:41.391Z,71.23
2022-10-11T06:08:16.438Z,71.06
2022-10-11T06:10:50.729Z,69.87
2022-10-11T06:13:25.820Z,70.57
2022-10-11T06:16:14.053Z,70.29
2022-10-11T06:18:47.298Z,69.40
2022-10-11T06:21:46.800Z,69.34
2022-10-11T06:24:40.012Z,68.39
2022-10-11T06:27:39.686Z,67.75
2022-10-11T06:30:32.523Z,67.43
2022-10-11T06:33:05.092Z,67.50
2022-10-11T06:36:00.325Z,66.95
2022-10-11T06:39:03.560Z,66.17
2022-10-11T06:41:54.419Z,65.45
2022-10-11T06:44:47.171Z,64.96
2022-10-11T06:47:34.563Z,65.88
2022-10-11T06:50:07.464Z,65.36
2022-10-11T06:53:11.294Z,65.76
2022-10-11T06:56:11.589Z,65.44
2022-10-11T06:59:02.122Z,65.01
2022-10-11T07:02:04.721Z,63.73
2022-10-11T07:04:41.616Z,63.26
2022-10-11T07:07:19.096Z,63.43
2022-10-11T07:10:13.790Z,62.79
2022-10-11T07:13:03.487Z,62.49
2022-10-11T07:15:54.038Z,62.39
2022-10-11T07:18:28.050Z,62.23
2022-10-11T07:21:20.348Z,61.47
2022-10-11T07:24:11.805Z,61.65
2022-10-11T07:27:03.363Z,61.47
2022-10-11T07:29:50.077Z,61.55
2022-10-11T07:32:41.595Z,62.06
2022-10-11T07:35:36.447Z,60.72
2022-10-11T07:38:27.858Z,61.40
2022-10-11T07:41:16.623Z,63.07
2022-10-11T07:44:03.434Z,64.89
2022-10-11T07:46:57.553Z,65.63
2022-10-11T07:49:48.757Z,65.23
2022-10-11T07:52:40.729Z,65.00
2022-10-11T07:55:40.154Z,64.58
2022-10-11T07:58:28.411Z,62.78
2022-10-11T08:01:01.047Z,63.53
2022-10-11T08:03:54.767Z,63.79
2022-10-11T08:06:42.711Z,64.24
2022-10-11T08:09:39.202Z,63.77
2022-10-11T08:12:39.142Z,63.43
2022-10-11T08:15:38.907Z,63.00
2022-10-11T08:18:31.129Z,63.36
2022-10-11T08:21:21.445Z,62.74
2022-10-11T08:24:15.010Z,63.11
2022-10-11T08:27:05.998Z,61.75
2022-10-11T08:29:54.220Z,61.24
2022-10-11T08:32:27.306Z,61.60
2022-10-11T08:35:30.423Z,62.72
2022-10-11T08:38:23.909Z,62.79
2022-10-11T08:41:42.050Z,62.29
2022-10-11T08:45:08.874Z,62.47
2022-10-11T08:48:20.154Z,62.46
2022-10-11T08:51:49.955Z,62.31
2022-10-11T08:54:48.005Z,61.73
2022-10-11T08:57:41.700Z,61.95
2022-10-11T09:00:34.352Z,61.35
2022-10-11T09:03:23.619Z,62.74
2022-10-11T09:06:12.357Z,62.75
2022-10-11T09:09:11.614Z,63.47
2022-10-11T09:12:05.579Z,63.26
2022-10-11T09:14:46.623Z,63.13
2022-10-11T09:17:45.588Z,63.69
2022-10-11T09:20:53.174Z,63.30
2022-10-11T09:23:36.513Z,63.58
2022-10-11T09:26:48.969Z,63.11
2022-10-11T09:29:40.164Z,63.19
2022-10-11T09:32:03.202Z,64.01
2022-10-11T09:34:32.384Z,64.48
2022-10-11T09:37:07.440Z,64.38
2022-10-11T09:39:34.094Z,63.78
2022-10-11T09:42:01.944Z,62.97
2022-10-11T09:44:28.131Z,62.73
2022-10-11T09:46:54.008Z,62.87
2022-10-11T09:49:19.621Z,62.68
2022-10-11T09:51:49.894Z,62.28
2022-10-11T09:54:12.661Z,62.69
2022-10-11T09:56:42.287Z,62.68
2022-10-11T09:59:31.170Z,62.51
2022-10-11T10:02:14.576Z,62.72
2022-10-11T10:04:54.149Z,63.35
2022-10-11T10:07:16.938Z,63.41
2022-10-11T10:09:41.217Z,63.21
2022-10-11T10:12:19.068Z,62.91
2022-10-11T10:14:42.047Z,62.08
2022-10-11T10:17:08.662Z,61.95
2022-10-11T10:19:49.701Z,61.68
2022-10-11T10:22:25.471Z,61.96
2022-10-11T10:24:49.906Z,61.81
2022-10-11T10:27:27.298Z,61.24
2022-10-11T10:30:19.458Z,61.40
2022-10-11T10:33:11.964Z,59.92
2022-10-11T10:35:45.705Z,60.56
2022-10-11T10:38:11.140Z,59.83
2022-10-11T10:40:41.282Z,59.26
2022-10-11T10:43:04.046Z,59.02
2022-10-11T10:45:37.152Z,58.72
2022-10-11T10:48:18.188Z,57.92
2022-10-11T10:51:01.074Z,57.03
2022-10-11T10:53:43.354Z,57.01
2022-10-11T10:56:12.296Z,56.82
2022-10-11T10:59:01.039Z,56.75
2022-10-11T11:01:27.821Z,57.90
2022-10-11T11:04:06.779Z,58.24
2022-10-11T11:06:47.472Z,56.83
2022-10-11T11:09:19.246Z,57.54
2022-10-11T11:12:20.164Z,58.18
2022-10-11T11:14:48.451Z,58.48
2022-10-11T11:17:25.849Z,58.27
2022-10-11T11:20:16.586Z,57.70
2022-10-11T11:22:50.962Z,58.71
2022-10-11T11:26:07.975Z,58.86
2022-10-11T11:28:49.254Z,57.51
2022-10-11T11:31:51.625Z,57.91
2022-10-11T11:34:17.335Z,58.12
2022-10-11T11:36:47.924Z,57.56
2022-10-11T11:39:39.760Z,57.81
2022-10-11T11:42:11.880Z,59.13
2022-10-11T11:44:44.050Z,58.49
2022-10-11T11:47:13.754Z,58.13
2022-10-11T11:49:40.343Z,58.41
2022-10-11T11:52:08.623Z,58.30
2022-10-11T11:54:52.868Z,58.39
2022-10-11T11:57:24.608Z,58.92
2022-10-11T12:00:10.290Z,58.97
2022-10-11T12:02:51.028Z,58.16
2022-10-11T12:05:16.946Z,59.20
2022-10-11T12:08:08.644Z,58.04
2022-10-11T12:10:49.737Z,57.94
2022-10-11T12:13:20.330Z,57.53
2022-10-11T12:16:09.761Z,58.11
2022-10-11T12:18:38.213Z,57.69
2022-10-11T12:21:25.110Z,57.56
2022-10-11T12:23:53.649Z,57.80
2022-10-11T12:26:29.140Z,58.79
2022-10-11T12:29:17.210Z,57.98
2022-10-11T12:31:45.204Z,58.58
2022-10-11T12:34:23.771Z,58.31
2022-10-11T12:36:50.899Z,58.06
2022-10-11T12:39:19.673Z,57.48
2022-10-11T12:41:56.903Z,58.56
2022-10-11T12:44:20.334Z,58.52
2022-10-11T12:47:03.925Z,59.21
2022-10-11T12:49:53.636Z,58.44
2022-10-11T12:52:16.264Z,58.59
2022-10-11T12:54:54.330Z,58.70
2022-10-11T12:57:45.938Z,58.08
2022-10-11T13:00:32.041Z,58.21
2022-10-11T13:02:56.582Z,58.82
2022-10-11T13:05:45.317Z,57.83
2022-10-11T13:08:16.164Z,58.67
2022-10-11T13:10:43.955Z,58.79
2022-10-11T13:13:15.879Z,58.07
2022-10-11T13:15:42.032Z,58.65
2022-10-11T13:18:05.252Z,58.13
2022-10-11T13:20:37.521Z,57.85
2022-10-11T13:23:02.856Z,58.27
2022-10-11T13:25:28.157Z,57.94
2022-10-11T13:30:32.239Z,57.90
2022-10-11T13:32:55.387Z,57.91
2022-10-11T13:35:30.362Z,58.51
2022-10-11T13:37:53.199Z,58.17
2022-10-11T13:40:18.978Z,57.74
2022-10-11T13:42:41.968Z,57.93
2022-10-11T13:45:05.447Z,58.71
2022-10-11T13:47:30.757Z,58.59
2022-10-11T13:50:33.413Z,57.86
2022-10-11T13:53:01.935Z,57.78
2022-10-11T13:55:53.218Z,57.63
2022-10-11T13:58:27.847Z,59.32
2022-10-11T14:00:56.800Z,59.07
2022-10-11T14:03:21.386Z,58.38
2022-10-11T14:05:53.276Z,58.22
2022-10-11T14:08:28.644Z,58.81
2022-10-11T14:10:56.703Z,58.34
2022-10-11T14:13:40.183Z,58.15
2022-10-11T14:16:05.217Z,57.88
2022-10-11T14:18:42.609Z,56.64
2022-10-11T14:21:20.291Z,56.58
2022-10-11T14:23:42.876Z,56.28
2022-10-11T14:26:05.956Z,56.39
2022-10-11T14:28:28.890Z,56.99
2022-10-11T14:30:51.480Z,57.93
2022-10-11T14:33:14.194Z,57.89
2022-10-11T14:35:36.850Z,57.38
2022-10-11T14:38:00.057Z,56.98
2022-10-11T14:40:25.181Z,57.54
2022-10-11T14:42:48.167Z,57.64
2022-10-11T14:45:11.142Z,57.88
2022-10-11T14:47:40.565Z,57.42
2022-10-11T14:50:28.670Z,57.62
2022-10-11T14:52:51.564Z,57.69
2022-10-11T14:55:14.105Z,58.88
2022-10-11T14:57:36.705Z,59.21
2022-10-11T14:59:59.235Z,58.94
2022-10-11T15:02:21.776Z,59.54
2022-10-11T15:04:44.230Z,60.35
2022-10-11T15:07:07.018Z,60.14
2022-10-11T15:09:30.211Z,60.12
2022-10-11T15:11:54.744Z,60.75
2022-10-11T15:14:17.655Z,60.33
2022-10-11T15:16:40.681Z,60.33
2022-10-11T15:19:03.586Z,60.58
2022-10-11T15:21:28.597Z,60.62
2022-10-11T15:23:53.964Z,60.61
2022-10-11T15:26:18.780Z,60.79
2022-10-11T15:28:42.419Z,61.06
2022-10-11T15:31:05.130Z,61.27
2022-10-11T15:33:27.741Z,61.25
2022-10-11T15:35:51.027Z,61.24
2022-10-11T15:38:22.926Z,61.45
2022-10-11T15:40:46.716Z,61.56
2022-10-11T15:43:09.337Z,61.75
2022-10-11T15:45:34.760Z,61.79
2022-10-11T15:47:58.144Z,61.78
2022-10-11T15:50:36.837Z,61.73
2022-10-11T15:53:18.057Z,61.70
2022-10-11T15:55:52.943Z,61.79
2022-10-11T15:58:24.849Z,61.83
2022-10-11T16:00:51.184Z,61.74
2022-10-11T16:03:15.641Z,61.90
2022-10-11T16:05:38.375Z,62.20
2022-10-11T16:08:01.122Z,62.39
2022-10-11T16:10:23.839Z,62.51
2022-10-11T16:12:46.926Z,62.98
2022-10-11T16:15:10.228Z,63.16
2022-10-11T16:17:32.867Z,63.52
2022-10-11T16:19:57.471Z,63.66
2022-10-11T16:22:20.035Z,63.90
2022-10-11T16:24:42.876Z,63.98
2022-10-11T16:27:05.902Z,64.01
2022-10-11T16:29:29.149Z,64.39
2022-10-11T16:31:51.965Z,64.77
2022-10-11T16:34:14.600Z,64.93
2022-10-11T16:36:40.777Z,64.98
2022-10-11T16:39:14.815Z,65.13
2022-10-11T16:41:37.596Z,65.55
2022-10-11T16:44:00.119Z,65.67
2022-10-11T16:46:23.085Z,65.93
2022-10-11T16:48:46.749Z,66.32
2022-10-11T16:51:10.052Z,66.13
2022-10-11T16:53:35.878Z,66.33
2022-10-11T16:55:58.991Z,65.64
2022-10-11T16:58:21.642Z,66.10
2022-10-11T17:00:48.461Z,66.69
2022-10-11T17:03:12.369Z,66.51
2022-10-11T17:05:36.671Z,66.38
2022-10-11T17:07:59.161Z,66.73
2022-10-11T17:10:39.365Z,66.37
2022-10-11T17:13:02.434Z,66.30
2022-10-11T17:15:26.331Z,66.29
2022-10-11T17:17:49.027Z,67.34
2022-10-11T17:20:11.658Z,67.88
2022-10-11T17:22:34.236Z,68.41
2022-10-11T17:24:56.743Z,69.92
2022-10-11T17:27:19.420Z,70.42
2022-10-11T17:29:42.062Z,70.48
2022-10-11T17:32:05.162Z,70.91
2022-10-11T17:34:27.876Z,70.26
2022-10-11T17:36:50.603Z,70.42
2022-10-11T17:39:15.826Z,70.72
2022-10-11T17:41:38.961Z,70.98
2022-10-11T17:44:02.950Z,70.26
2022-10-11T17:46:25.918Z,69.55
2022-10-11T17:48:48.792Z,69.44
2022-10-11T17:51:14.934Z,69.17
2022-10-11T17:53:38.461Z,69.08
2022-10-11T17:56:05.455Z,69.04
2022-10-11T17:58:28.362Z,69.24
2022-10-11T18:00:51.087Z,69.84
2022-10-11T18:03:13.760Z,69.76
2022-10-11T18:05:40.972Z,70.31
2022-10-11T18:08:03.873Z,71.13
2022-10-11T18:10:28.677Z,71.45
2022-10-11T18:12:53.322Z,72.12
2022-10-11T18:15:16.246Z,72.00
2022-10-11T18:17:38.970Z,72.15
2022-10-11T18:20:01.749Z,73.04
2022-10-11T18:22:24.302Z,73.68
2022-10-11T18:24:47.860Z,73.94
2022-10-11T18:27:10.307Z,73.94
2022-10-11T18:29:33.406Z,73.84
2022-10-11T18:31:56.508Z,74.40
2022-10-11T18:34:20.369Z,74.51
2022-10-11T18:36:43.122Z,74.81
2022-10-11T18:39:08.563Z,74.90
2022-10-11T18:41:32.626Z,75.45
2022-10-11T18:43:57.353Z,76.06
2022-10-11T18:46:21.593Z,76.26
2022-10-11T18:48:46.116Z,76.38
2022-10-11T18:51:14.944Z,76.33
2022-10-11T18:53:38.017Z,76.54
2022-10-11T18:56:01.825Z,77.28
2022-10-11T18:58:24.503Z,77.50
2022-10-11T19:00:47.303Z,78.39
2022-10-11T19:03:10.098Z,78.44
2022-10-11T19:05:32.913Z,78.50
2022-10-11T19:07:55.854Z,78.54
2022-10-11T19:10:18.548Z,78.65
2022-10-11T19:12:41.064Z,79.09
2022-10-11T19:15:03.882Z,79.48
2022-10-11T19:17:26.820Z,78.93
2022-10-11T19:19:49.993Z,78.75
2022-10-11T19:22:12.497Z,78.58
2022-10-11T19:24:35.077Z,78.85
2022-10-11T19:27:02.342Z,79.06
2022-10-11T19:29:27.827Z,79.55
2022-10-11T19:31:53.623Z,80.26
2022-10-11T19:34:16.658Z,80.50
2022-10-11T19:36:42.680Z,80.88
2022-10-11T19:39:05.951Z,81.11
2022-10-11T19:41:28.998Z,80.61
2022-10-11T19:43:51.825Z,80.30
2022-10-11T19:46:27.380Z,79.82
2022-10-11T19:48:55.436Z,79.45
2022-10-11T19:51:21.994Z,79.55
2022-10-11T19:53:45.898Z,79.47
2022-10-11T19:56:11.365Z,79.06
2022-10-11T19:58:34.102Z,79.24
2022-10-11T20:01:06.296Z,79.12
2022-10-11T20:03:30.440Z,78.94
2022-10-11T20:05:53.079Z,79.16
2022-10-11T20:08:15.547Z,79.12
2022-10-11T20:10:38.099Z,79.63
2022-10-11T20:13:00.784Z,79.34
2022-10-11T20:15:23.536Z,79.37
2022-10-11T20:17:50.054Z,79.59
2022-10-11T20:20:12.546Z,79.35
2022-10-11T20:22:35.545Z,79.14
2022-10-11T20:24:58.153Z,79.02
2022-10-11T20:27:20.708Z,79.08
2022-10-11T20:29:43.314Z,78.52
2022-10-11T20:32:06.035Z,78.26
2022-10-11T20:34:28.810Z,77.99
2022-10-11T20:36:52.305Z,77.81
2022-10-11T20:39:14.987Z,78.00
2022-10-11T20:41:40.034Z,77.98
2022-10-11T20:44:04.028Z,78.13
2022-10-11T20:46:29.894Z,78.16
2022-10-11T20:49:00.365Z,77.95
2022-10-11T20:51:24.114Z,78.03
2022-10-11T20:53:46.732Z,77.93
2022-10-11T20:56:12.240Z,78.25
2022-10-11T20:58:34.828Z,78.65
2022-10-11T21:00:57.503Z,78.50
2022-10-11T21:03:20.138Z,78.61
2022-10-11T21:05:43.303Z,78.75
2022-10-11T21:08:06.420Z,78.89
2022-10-11T21:10:29.124Z,78.80
2022-10-11T21:12:51.624Z,78.97
2022-10-11T21:15:14.552Z,79.26
2022-10-11T21:17:37.173Z,79.45
2022-10-11T21:20:01.965Z,79.44
2022-10-11T21:22:25.885Z,80.12
2022-10-11T21:24:48.352Z,80.42
2022-10-11T21:27:11.121Z,80.13
2022-10-11T21:29:33.754Z,80.34
2022-10-11T21:31:56.333Z,80.74
2022-10-11T21:34:19.026Z,80.91
2022-10-11T21:36:42.631Z,81.28
2022-10-11T21:39:05.659Z,81.28
2022-10-11T21:41:31.353Z,81.18
2022-10-11T21:43:53.952Z,81.98
2022-10-11T21:46:22.935Z,82.04
2022-10-11T21:48:46.157Z,82.09
2022-10-11T21:51:17.579Z,81.97
2022-10-11T21:53:40.131Z,82.30
2022-10-11T21:56:02.621Z,82.40
2022-10-11T21:58:25.465Z,82.29
2022-10-11T22:00:48.310Z,82.19
2022-10-11T22:03:11.300Z,82.31
2022-10-11T22:05:34.013Z,82.40
2022-10-11T22:08:02.316Z,82.70
2022-10-11T22:10:24.897Z,82.65
2022-10-11T22:12:47.430Z,83.07
2022-10-11T22:15:10.200Z,83.09
2022-10-11T22:17:33.106Z,83.32
2022-10-11T22:19:55.853Z,83.44
2022-10-11T22:22:18.687Z,83.51
2022-10-11T22:24:41.142Z,83.86
2022-10-11T22:27:03.871Z,84.03
2022-10-11T22:29:31.772Z,83.86
2022-10-11T22:31:56.541Z,84.13
2022-10-11T22:34:19.244Z,84.49
2022-10-11T22:36:41.909Z,84.53
2022-10-11T22:39:07.934Z,84.54
2022-10-11T22:41:30.783Z,84.63
2022-10-11T22:43:53.341Z,84.74
2022-10-11T22:46:16.021Z,84.31
2022-10-11T22:48:40.393Z,84.62
2022-10-11T22:51:03.388Z,84.23
2022-10-11T22:53:25.973Z,84.40
2022-10-11T22:55:48.599Z,84.71
2022-10-11T22:58:11.223Z,85.16
2022-10-11T23:00:34.205Z,85.35
2022-10-11T23:02:57.020Z,85.40
2022-10-11T23:05:19.934Z,85.41
2022-10-11T23:07:42.463Z,84.79
2022-10-11T23:10:05.552Z,84.24
2022-10-11T23:12:28.150Z,84.43
2022-10-11T23:14:50.711Z,84.72
2022-10-11T23:17:13.180Z,85.11
2022-10-11T23:19:37.870Z,85.15
2022-10-11T23:22:00.353Z,85.22
2022-10-11T23:24:23.186Z,85.33
2022-10-11T23:26:45.772Z,85.41
2022-10-11T23:29:08.420Z,85.72
2022-10-11T23:31:31.169Z,85.54
2022-10-11T23:33:54.570Z,85.39
2022-10-11T23:36:19.344Z,85.98
2022-10-11T23:38:41.933Z,85.90
2022-10-11T23:41:04.655Z,85.62
2022-10-11T23:43:27.334Z,85.45
2022-10-11T23:45:50.144Z,85.89
2022-10-11T23:48:12.795Z,85.95
2022-10-11T23:50:35.375Z,85.98
2022-10-11T23:52:57.974Z,85.96
2022-10-11T23:55:20.527Z,85.97
2022-10-11T23:57:43.128Z,85.83
